Time;durP1;ratioP1;P1;durP2;ratioP2;P2;SDS_P1;SDS_P2;PMS_P1;PMS_P2;Temp;Humidity;BMP_temperature;BMP_pressure;BME280_temperature;BME280_humidity;BME280_pressure;Samples;Min_cycle;Max_cycle;Signal;HPM_P1;HPM_P2
2022/08/27 09:21:12;;;;;;;6.40;0.73;;;21.30;67.70;;;;;;6186734;22;20035;-77
2022/08/27 09:24:04;;;;;;;8.50;1.73;;;21.30;67.00;;;;;;6182240;23;20035;-76
2022/08/27 09:26:34;;;;;;;6.97;1.13;;;21.30;67.10;;;;;;6138450;23;20428;-77
2022/08/27 09:29:15;;;;;;;11.57;1.38;;;21.30;66.90;;;;;;6189163;23;20079;-77
2022/08/27 09:31:46;;;;;;;5.78;0.90;;;21.40;67.20;;;;;;6163107;23;20167;-76
2022/08/27 09:34:13;;;;;;;5.45;1.00;;;21.40;66.40;;;;;;6189184;23;20017;-77
2022/08/27 09:36:58;;;;;;;7.53;1.00;;;21.40;66.30;;;;;;6189120;23;20028;-74
2022/08/27 09:40:05;;;;;;;8.63;1.40;;;21.40;65.30;;;;;;6163518;23;20370;-75
2022/08/27 09:42:45;;;;;;;7.07;0.93;;;21.40;66.10;;;;;;6188521;23;20448;-76
2022/08/27 09:45:28;;;;;;;8.35;1.02;;;21.40;66.40;;;;;;6162482;23;20481;-75
2022/08/27 09:48:03;;;;;;;8.50;1.00;;;21.40;66.10;;;;;;6188403;23;20016;-75
2022/08/27 09:50:45;;;;;;;4.95;0.77;;;21.40;66.10;;;;;;6189186;23;20028;-76
2022/08/27 09:53:24;;;;;;;6.90;1.13;;;21.40;65.80;;;;;;6188971;23;20023;-75
2022/08/27 09:55:56;;;;;;;3.45;1.25;;;21.40;66.40;;;;;;6160706;23;20426;-76
2022/08/27 09:58:27;;;;;;;6.68;0.80;;;21.40;66.40;;;;;;6186421;23;20369;-74
2022/08/27 10:01:22;;;;;;;8.30;1.20;;;21.40;66.30;;;;;;6188484;23;20310;-75
2022/08/27 10:03:48;;;;;;;10.43;1.27;;;21.40;64.70;;;;;;6189091;23;20017;-76
2022/08/27 10:06:25;;;;;;;5.88;0.90;;;21.40;65.50;;;;;;6188679;23;20092;-73
2022/08/27 10:08:53;;;;;;;5.10;1.20;;;21.40;65.00;;;;;;6188635;23;20017;-77
2022/08/27 10:11:51;;;;;;;4.22;1.17;;;21.40;64.10;;;;;;6188562;23;20021;-76
2022/08/27 10:14:33;;;;;;;13.73;1.27;;;21.40;63.80;;;;;;6134268;23;20028;-78
2022/08/27 10:17:36;;;;;;;6.63;0.50;;;21.50;64.90;;;;;;6189750;23;20092;-76
2022/08/27 10:20:24;;;;;;;7.85;1.00;;;21.40;63.80;;;;;;6188423;23;20049;-77
2022/08/27 10:23:15;;;;;;;11.02;1.48;;;21.40;64.10;;;;;;6188687;23;20013;-74
2022/08/27 10:25:53;;;;;;;5.47;0.50;;;21.40;64.80;;;;;;6188772;23;20112;-75
2022/08/27 10:28:28;;;;;;;6.18;0.70;;;21.50;64.70;;;;;;6188579;23;20083;-74
2022/08/27 10:31:15;;;;;;;5.80;0.73;;;21.40;64.40;;;;;;6188798;23;20024;-74
2022/08/27 10:33:43;;;;;;;7.75;0.98;;;21.40;63.60;;;;;;6188589;23;20023;-73
2022/08/27 10:36:45;;;;;;;7.32;1.08;;;21.40;64.60;;;;;;6188526;23;20080;-74
2022/08/27 10:39:13;;;;;;;10.55;1.00;;;21.50;64.60;;;;;;6108983;23;20092;-74
2022/08/27 10:42:11;;;;;;;4.32;0.85;;;21.50;64.70;;;;;;6189289;23;20031;-75
2022/08/27 10:44:51;;;;;;;5.13;0.80;;;21.50;64.30;;;;;;6189572;23;20017;-75
2022/08/27 10:47:35;;;;;;;6.90;1.15;;;21.50;65.20;;;;;;6188464;23;20013;-75
2022/08/27 10:50:23;;;;;;;16.60;2.03;;;21.50;65.70;;;;;;6188399;23;20091;-74
2022/08/27 10:52:53;;;;;;;13.77;1.20;;;21.50;66.30;;;;;;6188774;23;20028;-76
2022/08/27 10:55:44;;;;;;;10.88;1.17;;;21.60;66.30;;;;;;6162250;23;20033;-75
2022/08/27 10:58:37;;;;;;;17.13;2.05;;;21.50;66.20;;;;;;6162109;23;20084;-74
2022/08/27 11:01:18;;;;;;;7.50;1.10;;;21.60;66.40;;;;;;6188953;23;20314;-74
2022/08/27 11:04:09;;;;;;;5.43;1.00;;;21.60;65.90;;;;;;6188065;23;20032;-74
2022/08/27 11:06:52;;;;;;;6.78;0.90;;;21.60;65.60;;;;;;6188239;23;20096;-73
2022/08/27 11:09:34;;;;;;;5.13;0.77;;;21.50;65.60;;;;;;6162076;23;20017;-74
2022/08/27 11:12:05;;;;;;;7.95;0.82;;;21.60;65.60;;;;;;6187936;23;20049;-73
2022/08/27 11:14:42;;;;;;;7.53;0.90;;;21.60;65.80;;;;;;6188245;23;20088;-75
2022/08/27 11:17:17;;;;;;;6.85;0.88;;;21.60;65.90;;;;;;6188170;23;20040;-74
2022/08/27 11:20:09;;;;;;;5.22;0.70;;;21.60;66.00;;;;;;6188675;23;20017;-74
2022/08/27 11:22:53;;;;;;;4.75;0.73;;;21.60;66.00;;;;;;6202168;23;20017;-75
2022/08/27 11:25:40;;;;;;;7.57;0.80;;;21.60;66.00;;;;;;6218451;23;20051;-74
2022/08/27 11:28:08;;;;;;;7.88;1.05;;;21.70;66.10;;;;;;6215012;23;20025;-74
2022/08/27 11:30:40;;;;;;;7.05;0.50;;;21.70;66.20;;;;;;6217414;23;20024;-74
2022/08/27 11:33:16;;;;;;;4.90;0.73;;;21.70;66.30;;;;;;6191999;23;20409;-74
2022/08/27 11:36:19;;;;;;;7.88;1.13;;;21.70;66.30;;;;;;6218544;23;20092;-75
2022/08/27 11:38:51;;;;;;;3.90;0.60;;;21.70;66.30;;;;;;6218369;23;20052;-73
2022/08/27 11:41:51;;;;;;;5.95;0.90;;;21.70;66.50;;;;;;6217672;23;20020;-73
2022/08/27 11:44:23;;;;;;;9.88;0.80;;;21.70;66.40;;;;;;6217085;23;20028;-74
2022/08/27 11:46:54;;;;;;;4.15;0.52;;;21.70;66.50;;;;;;6215622;23;20160;-74
2022/08/27 11:49:45;;;;;;;5.47;0.55;;;21.70;66.50;;;;;;6218554;23;20044;-75
2022/08/27 11:52:18;;;;;;;2.72;0.47;;;21.70;66.40;;;;;;6203144;23;20051;-75
2022/08/27 11:54:51;;;;;;;4.55;0.57;;;21.70;66.60;;;;;;6217573;23;20028;-75
2022/08/27 11:57:30;;;;;;;3.80;0.90;;;21.70;66.60;;;;;;6217731;23;20028;-74
2022/08/27 11:59:56;;;;;;;9.82;1.00;;;21.70;65.70;;;;;;6217630;23;20027;-74
2022/08/27 12:02:26;;;;;;;4.63;0.68;;;21.70;66.10;;;;;;6217228;23;20020;-74
2022/08/27 12:05:06;;;;;;;7.78;0.90;;;21.80;66.40;;;;;;6217994;23;20028;-75
2022/08/27 12:07:38;;;;;;;7.50;0.70;;;21.80;66.50;;;;;;6217862;23;20012;-74
2022/08/27 12:10:42;;;;;;;3.40;0.43;;;21.80;66.40;;;;;;6217716;23;20364;-75
2022/08/27 12:13:14;;;;;;;6.45;0.63;;;21.80;66.40;;;;;;6217297;23;20270;-73
2022/08/27 12:16:11;;;;;;;4.25;0.98;;;21.80;66.20;;;;;;6217634;23;20024;-75
2022/08/27 12:18:58;;;;;;;12.55;1.63;;;21.80;66.10;;;;;;6217234;23;20013;-74
2022/08/27 12:21:38;;;;;;;11.02;1.42;;;21.80;66.10;;;;;;6217940;23;20052;-74
2022/08/27 12:24:38;;;;;;;26.08;2.72;;;21.70;66.10;;;;;;6217607;23;20038;-75
2022/08/27 12:27:23;;;;;;;23.42;1.70;;;21.80;66.10;;;;;;6217995;23;20039;-75
2022/08/27 12:30:24;;;;;;;22.88;1.92;;;21.80;66.10;;;;;;6217241;23;20030;-74
2022/08/27 12:32:51;;;;;;;20.27;2.55;;;21.80;66.20;;;;;;6171735;23;20027;-74
2022/08/27 12:35:17;;;;;;;24.35;2.85;;;21.80;66.30;;;;;;6218030;23;20017;-72
2022/08/27 12:38:05;;;;;;;22.75;2.53;;;21.80;66.40;;;;;;6191700;23;20027;-74
2022/08/27 12:40:45;;;;;;;17.75;2.38;;;21.80;66.30;;;;;;6217409;23;20024;-73
2022/08/27 12:43:19;;;;;;;27.77;3.15;;;21.80;66.20;;;;;;6191299;23;20429;-74
2022/08/27 12:45:59;;;;;;;22.98;3.47;;;21.80;66.00;;;;;;6217760;23;20020;-75
2022/08/27 12:48:36;;;;;;;20.33;2.72;;;21.80;65.80;;;;;;6216581;23;20023;-75
2022/08/27 12:51:11;;;;;;;14.18;2.22;;;21.80;65.60;;;;;;6218084;23;20055;-74
2022/08/27 12:54:14;;;;;;;10.05;2.00;;;21.80;64.70;;;;;;6219613;23;20022;-74
2022/08/27 12:57:10;;;;;;;7.65;2.10;;;21.80;63.50;;;;;;6219138;23;20020;-75
2022/08/27 12:59:59;;;;;;;10.25;2.28;;;21.70;63.30;;;;;;6218971;23;20364;-74
2022/08/27 13:02:56;;;;;;;8.77;2.22;;;21.70;63.60;;;;;;6219276;23;20017;-74
2022/08/27 13:05:23;;;;;;;11.73;2.53;;;21.70;63.90;;;;;;6219986;23;20351;-74
2022/08/27 13:07:51;;;;;;;8.50;2.47;;;21.70;64.00;;;;;;6219224;23;20020;-74
2022/08/27 13:10:30;;;;;;;9.77;1.73;;;21.80;64.10;;;;;;6219593;23;20016;-74
2022/08/27 13:13:10;;;;;;;8.13;1.95;;;21.80;64.20;;;;;;6219957;23;20017;-75
2022/08/27 13:15:42;;;;;;;5.50;1.60;;;21.80;64.10;;;;;;6219317;23;20012;-74
2022/08/27 13:18:09;;;;;;;7.70;1.83;;;21.80;64.20;;;;;;6219351;23;20024;-74
2022/08/27 13:20:37;;;;;;;7.05;1.55;;;21.80;64.30;;;;;;6218704;23;20504;-74
2022/08/27 13:23:03;;;;;;;7.38;1.48;;;21.80;64.30;;;;;;6220069;23;20032;-75
2022/08/27 13:25:33;;;;;;;9.82;2.10;;;21.80;64.40;;;;;;6218756;23;20016;-76
2022/08/27 13:28:14;;;;;;;8.18;1.65;;;21.90;64.50;;;;;;6218463;23;20025;-76
2022/08/27 13:30:43;;;;;;;4.75;1.63;;;21.90;64.80;;;;;;6218764;23;20020;-74
2022/08/27 13:33:20;;;;;;;10.75;2.13;;;21.90;65.00;;;;;;6219359;23;20021;-75
2022/08/27 13:35:46;;;;;;;6.43;1.70;;;21.90;65.10;;;;;;6219401;23;20017;-75
2022/08/27 13:38:14;;;;;;;9.73;1.75;;;21.90;65.10;;;;;;6219741;23;20369;-74
2022/08/27 13:40:54;;;;;;;8.40;1.58;;;21.90;65.20;;;;;;6219398;23;20080;-74
2022/08/27 13:43:26;;;;;;;6.60;1.25;;;21.90;65.20;;;;;;6219070;23;20103;-74
2022/08/27 13:45:53;;;;;;;7.65;1.60;;;21.90;65.30;;;;;;6219657;23;20020;-74
2022/08/27 13:48:20;;;;;;;5.60;1.10;;;21.90;65.30;;;;;;6219152;23;20020;-74
2022/08/27 13:50:52;;;;;;;6.45;1.30;;;22.00;65.30;;;;;;6218741;23;20432;-75
2022/08/27 13:56:30;;;;;;;8.35;1.83;;;22.00;65.30;;;;;;6217179;23;20021;-75
2022/08/27 13:59:13;;;;;;;8.45;1.67;;;21.90;65.30;;;;;;6217392;23;20318;-75
2022/08/27 14:02:00;;;;;;;4.47;1.30;;;22.00;65.30;;;;;;6218504;23;20020;-74
2022/08/27 15:08:05;;;;;;;5.20;1.80;;;22.00;63.50;;;;;;6226746;23;20211;-74
2022/08/27 15:10:31;;;;;;;5.30;1.30;;;22.00;62.80;;;;;;6249929;23;20028;-74
2022/08/27 15:12:57;;;;;;;9.07;2.38;;;21.90;62.90;;;;;;6249439;23;20020;-74
2022/08/27 15:15:23;;;;;;;9.68;1.95;;;22.00;62.80;;;;;;6248348;23;20487;-74
2022/08/27 15:17:49;;;;;;;10.10;1.92;;;22.00;62.50;;;;;;6249077;23;20063;-73
2022/08/27 15:20:16;;;;;;;9.68;2.55;;;21.90;62.40;;;;;;6248548;23;20087;-75
2022/08/27 15:22:51;;;;;;;16.25;2.83;;;22.00;62.40;;;;;;6248532;23;20051;-77
2022/08/27 15:25:17;;;;;;;7.85;2.08;;;22.00;62.20;;;;;;6197448;23;20024;-75
2022/08/27 15:27:42;;;;;;;7.10;1.55;;;21.90;62.20;;;;;;6248594;23;20078;-74
2022/08/27 15:30:12;;;;;;;9.10;2.35;;;21.90;62.60;;;;;;6221706;23;20356;-76
2022/08/27 15:32:43;;;;;;;7.35;1.98;;;21.90;63.10;;;;;;6248587;23;20062;-74
2022/08/27 15:35:13;;;;;;;26.35;3.58;;;21.90;63.40;;;;;;6248148;23;20059;-75
2022/08/27 15:37:41;;;;;;;20.75;3.10;;;22.00;63.90;;;;;;6249139;23;20317;-74
2022/08/27 15:40:08;;;;;;;11.82;2.58;;;22.00;63.90;;;;;;6248572;23;20413;-77
2022/08/27 15:42:33;;;;;;;7.57;2.20;;;22.00;63.90;;;;;;6248440;23;20016;-74
2022/08/27 15:44:59;;;;;;;8.63;2.58;;;22.00;62.70;;;;;;6248601;23;20023;-75
2022/08/27 15:47:25;;;;;;;10.20;2.05;;;22.00;61.80;;;;;;6249241;23;20015;-74
2022/08/27 15:49:51;;;;;;;11.00;2.63;;;21.90;61.10;;;;;;6222813;23;20039;-77
2022/08/27 15:52:19;;;;;;;15.90;2.83;;;21.90;60.60;;;;;;6249347;23;20090;-73
2022/08/27 15:54:47;;;;;;;10.18;2.75;;;21.80;60.40;;;;;;6248422;23;20281;-74
2022/08/27 15:57:14;;;;;;;17.42;3.55;;;21.80;60.80;;;;;;6248589;23;20050;-75
2022/08/27 15:59:40;;;;;;;13.02;2.80;;;21.80;60.90;;;;;;6249069;23;20105;-75
2022/08/27 16:02:11;;;;;;;13.05;2.38;;;21.80;60.80;;;;;;6247971;23;20321;-74
2022/08/27 16:04:37;;;;;;;9.43;2.55;;;21.80;60.60;;;;;;6248770;23;20024;-74
2022/08/27 16:07:02;;;;;;;8.63;2.53;;;21.80;60.30;;;;;;6248633;23;20027;-74
2022/08/27 16:09:28;;;;;;;10.13;2.17;;;21.80;60.40;;;;;;6248068;23;20435;-74
2022/08/27 16:11:54;;;;;;;10.68;2.40;;;21.80;60.40;;;;;;6221721;23;20016;-74
2022/08/27 16:14:20;;;;;;;11.95;2.63;;;21.80;60.10;;;;;;6221428;23;20042;-74
2022/08/27 16:16:48;;;;;;;11.75;2.92;;;21.70;60.70;;;;;;6222161;23;20016;-76
2022/08/27 16:19:16;;;;;;;5.75;2.13;;;21.70;60.50;;;;;;6248329;23;20041;-74
2022/08/27 16:21:43;;;;;;;5.57;2.00;;;21.70;60.00;;;;;;6247694;23;20016;-75
2022/08/27 16:24:09;;;;;;;6.45;2.65;;;21.70;59.90;;;;;;6248551;23;20031;-75
2022/08/27 16:26:35;;;;;;;6.78;2.17;;;21.60;59.80;;;;;;6247927;23;20058;-75
2022/08/27 16:29:02;;;;;;;7.10;2.53;;;21.60;60.40;;;;;;6248042;23;20316;-74
2022/08/27 16:31:28;;;;;;;8.25;2.20;;;21.60;59.80;;;;;;6246970;23;20024;-74
2022/08/27 16:33:54;;;;;;;5.10;2.28;;;21.60;60.50;;;;;;6247598;23;20020;-74
2022/08/27 16:36:20;;;;;;;5.28;1.98;;;21.60;60.50;;;;;;6248109;23;20368;-75
2022/08/27 16:38:45;;;;;;;7.50;1.95;;;21.60;60.30;;;;;;6247981;23;20016;-74
2022/08/27 16:41:12;;;;;;;8.07;2.45;;;21.50;60.10;;;;;;6248040;23;20023;-75
2022/08/27 16:43:38;;;;;;;6.68;2.15;;;21.60;60.70;;;;;;6247645;23;20428;-75
2022/08/27 16:46:05;;;;;;;5.00;1.70;;;21.60;60.60;;;;;;6248060;23;20016;-76
2022/08/27 16:51:19;;;;;;;6.63;2.20;;;21.60;60.40;;;;;;6247549;23;20428;-74
2022/08/27 16:53:49;;;;;;;8.20;2.40;;;21.60;60.50;;;;;;6247898;23;20012;-74
2022/08/27 16:56:17;;;;;;;14.70;2.88;;;21.60;60.50;;;;;;6221027;23;20023;-74
2022/08/27 16:58:44;;;;;;;15.90;3.13;;;21.60;60.80;;;;;;6247177;23;20020;-73
2022/08/27 17:01:11;;;;;;;14.45;2.72;;;21.60;60.70;;;;;;6247978;23;20024;-73
2022/08/27 17:03:50;;;;;;;10.07;2.40;;;21.60;61.30;;;;;;6247987;23;20012;-74
2022/08/27 17:06:16;;;;;;;18.55;4.07;;;21.70;61.60;;;;;;6247956;23;20031;-82
2022/08/27 17:08:44;;;;;;;17.20;3.08;;;21.70;61.80;;;;;;6247411;23;20062;-74
2022/08/27 17:11:22;;;;;;;14.40;3.22;;;21.70;61.60;;;;;;6248171;23;20023;-74
2022/08/27 17:13:50;;;;;;;21.17;3.80;;;21.70;61.60;;;;;;6247990;23;20052;-73
2022/08/27 17:16:20;;;;;;;15.98;3.55;;;21.80;62.00;;;;;;6247891;23;20026;-73
2022/08/27 17:18:48;;;;;;;16.60;4.03;;;21.80;62.00;;;;;;6248622;23;20344;-74
2022/08/27 17:21:15;;;;;;;16.63;2.88;;;21.80;62.20;;;;;;6248459;23;20013;-75
2022/08/27 17:23:44;;;;;;;10.60;3.13;;;21.80;61.60;;;;;;6247697;23;20027;-76
2022/08/27 17:26:12;;;;;;;18.75;3.55;;;21.80;61.30;;;;;;6247961;23;20016;-76
2022/08/27 17:28:39;;;;;;;20.00;3.28;;;21.80;61.00;;;;;;6247832;23;20091;-75
2022/08/27 17:36:18;;;;;;;18.05;3.22;;;21.70;60.50;;;;;;6209101;22;20348;-75
2022/08/27 17:38:44;;;;;;;14.38;3.25;;;21.70;60.70;;;;;;6219337;23;20021;-75
2022/08/27 19:16:54;;;;;;;9.45;1.88;;;21.80;62.30;;;;;;6180531;23;20116;-74
2022/08/27 19:19:22;;;;;;;9.02;2.03;;;21.80;61.80;;;;;;6183324;23;20332;-75
2022/08/27 19:21:48;;;;;;;4.85;1.73;;;21.70;61.00;;;;;;6188790;23;20017;-74
2022/08/27 19:24:14;;;;;;;7.45;1.73;;;21.60;60.40;;;;;;6187223;23;20365;-75
2022/08/27 19:26:40;;;;;;;5.82;1.60;;;21.50;60.10;;;;;;6188298;23;20016;-75
2022/08/27 19:29:07;;;;;;;6.70;1.40;;;21.50;59.70;;;;;;6162974;23;20032;-75
2022/08/27 19:31:35;;;;;;;10.30;1.90;;;21.50;59.20;;;;;;6188118;23;20086;-76
2022/08/27 19:34:05;;;;;;;5.82;1.52;;;21.40;59.00;;;;;;6187863;23;20087;-79
2022/08/27 19:36:34;;;;;;;8.65;1.63;;;21.30;59.00;;;;;;6187478;23;20024;-75
2022/08/27 19:39:00;;;;;;;8.27;2.15;;;21.20;59.00;;;;;;6188142;23;20099;-73
2022/08/27 19:41:26;;;;;;;7.25;1.90;;;21.10;59.30;;;;;;6187781;23;20032;-78
2022/08/27 19:43:51;;;;;;;7.13;1.98;;;21.10;59.30;;;;;;6218171;23;20017;-73
2022/08/27 19:46:20;;;;;;;8.38;1.80;;;21.00;59.50;;;;;;6218137;23;20021;-75
2022/08/27 19:48:46;;;;;;;7.75;1.73;;;20.90;59.80;;;;;;6191897;23;20417;-76
2022/08/27 19:51:13;;;;;;;4.40;1.45;;;20.90;59.90;;;;;;6217620;23;20023;-75
2022/08/27 19:53:39;;;;;;;7.22;2.13;;;20.90;59.90;;;;;;6217675;23;20016;-74
2022/08/27 19:56:07;;;;;;;4.88;1.25;;;20.80;60.00;;;;;;6218293;23;20012;-75
2022/08/27 19:58:33;;;;;;;6.20;1.52;;;20.80;60.40;;;;;;6217677;23;20088;-75
2022/08/27 20:00:59;;;;;;;8.73;1.98;;;20.70;60.50;;;;;;6217554;23;20072;-77
2022/08/27 20:03:25;;;;;;;6.70;1.65;;;20.70;60.70;;;;;;6217717;23;20021;-74
2022/08/27 20:05:51;;;;;;;7.10;1.77;;;20.70;60.90;;;;;;6217542;23;20036;-73
2022/08/27 20:08:18;;;;;;;8.45;1.75;;;20.70;61.00;;;;;;6218674;23;20052;-74
2022/08/27 20:10:44;;;;;;;3.20;1.23;;;20.70;61.20;;;;;;6217388;23;20028;-76
2022/08/27 20:13:10;;;;;;;8.75;1.90;;;20.60;61.20;;;;;;6217583;23;20099;-75
2022/08/27 20:15:36;;;;;;;5.80;1.60;;;20.60;61.50;;;;;;6217215;23;20048;-74
2022/08/27 20:18:04;;;;;;;6.10;1.90;;;20.60;61.70;;;;;;6231440;23;20412;-75
2022/08/27 20:20:31;;;;;;;6.30;1.38;;;20.50;61.60;;;;;;6247961;23;20309;-75
2022/08/27 20:22:58;;;;;;;7.07;2.10;;;20.50;61.70;;;;;;6247908;23;20292;-77
2022/08/27 20:25:24;;;;;;;8.13;1.88;;;20.50;61.90;;;;;;6247896;23;20317;-75
2022/08/27 20:27:51;;;;;;;4.10;1.30;;;20.40;62.00;;;;;;6247744;23;20027;-77
2022/08/27 20:30:20;;;;;;;6.20;1.80;;;20.40;61.90;;;;;;6247702;23;20016;-76
2022/08/27 20:32:46;;;;;;;7.25;1.88;;;20.40;62.10;;;;;;6247479;23;20091;-79
2022/08/27 20:35:13;;;;;;;7.30;2.03;;;20.40;62.10;;;;;;6247743;23;20318;-80
2022/08/27 20:37:39;;;;;;;7.75;1.90;;;20.40;62.00;;;;;;6247698;23;20368;-79
2022/08/27 20:40:09;;;;;;;5.18;1.50;;;20.40;62.10;;;;;;6248225;23;20012;-78
2022/08/27 20:42:35;;;;;;;12.60;2.10;;;20.30;62.00;;;;;;6247310;23;20483;-77
2022/08/27 20:45:01;;;;;;;6.07;1.92;;;20.30;61.90;;;;;;6247767;23;20016;-78
2022/08/27 20:47:28;;;;;;;5.90;1.73;;;20.40;62.00;;;;;;6221430;23;20023;-78
2022/08/27 20:49:54;;;;;;;5.65;1.48;;;20.30;62.00;;;;;;6221550;23;20278;-78
2022/08/27 20:52:19;;;;;;;5.78;1.73;;;20.30;62.00;;;;;;6221255;23;20099;-78
2022/08/27 20:54:45;;;;;;;5.93;1.75;;;20.30;62.00;;;;;;6220782;23;20103;-77
2022/08/27 20:57:12;;;;;;;5.90;1.98;;;20.30;62.00;;;;;;6247838;23;20020;-77
2022/08/27 21:02:25;;;;;;;5.40;1.90;;;20.20;61.80;;;;;;6247840;23;20020;-77
2022/08/27 21:04:52;;;;;;;6.00;2.10;;;20.20;61.70;;;;;;6221321;23;20020;-78
2022/08/27 21:07:20;;;;;;;8.82;2.08;;;20.20;61.80;;;;;;6247873;23;20012;-77
2022/08/27 21:09:46;;;;;;;4.95;1.70;;;20.20;61.80;;;;;;6248198;23;20058;-78
2022/08/27 21:12:12;;;;;;;7.70;2.47;;;20.20;61.70;;;;;;6221265;23;20019;-80
2022/08/27 21:14:38;;;;;;;8.38;2.00;;;20.20;61.80;;;;;;6249621;23;20077;-80
2022/08/27 21:17:04;;;;;;;8.38;1.90;;;20.10;61.70;;;;;;6222952;23;20117;-77
2022/08/27 21:19:31;;;;;;;6.28;2.08;;;20.10;61.70;;;;;;6222963;23;20417;-79
2022/08/27 21:21:57;;;;;;;10.20;2.58;;;20.10;61.70;;;;;;6222822;23;20082;-76
